Aérodrome :
LOGIN :

S'inscrire | Disclaimer

   EN    FR    IT 

 










Légende :    VFR   VFR Marginal   IFR   IFR Intensif   IFR Très Intensif
Visi : 
Plafond : 
>= 8 km
>= 3000ft
5 à 8 km
1000 à 3000 ft
1500m à 5 km
500 à 1000 ft
800 à 1500m
200 à 500 ft
< 800m
< 200 ft
Symboles :   Orages  Brouillard  Fortes neiges  Fortes précipitations  Vent > 20 kt
SIGMETs :   Divers  Orages  Givrage  Turbulence  Onde Orograph.  Cendres Volcan.






- Altitude de l'aérodrome : 768 ft
- Code IATA : MXP


LIMC - Milano Malpensa

DERNIER METAR :
  • 231950Z 03006KT 350V060 9999 BKN080 18/17 Q1018 NOSIG

METARs EXPIRÉS :
  • 231920Z 19002KT 9999 BKN035 18/17 Q1019 NOSIG
  • 231850Z VRB01KT 9999 BKN035 18/17 Q1018 NOSIG
  • 231820Z 03002KT CAVOK 18/17 Q1018 NOSIG
  • 231750Z 04002KT 9999 BKN080 18/17 Q1018 NOSIG
  • 231720Z 05003KT 9999 BKN080 18/17 Q1018 NOSIG

TAF TAF LIMC
Valide du 23 à 18h jusqu'au 25 à 00h UTC


231700Z 2318/2424 VRB05KT 9999 BKN060
BECMG 2322/2324 4000 RA BR BKN012 BKN040



MET'MAP, la Météo Aéronautique d'un coup d'oeil ! - Copyright ORBIFLY Décembre 2007 - Disclaimer

ORBIFLY MET'MAP TEAM :

Programmation & Développement : Alexandra Zaïnal
Conception & Développement : Baudouin d'Aumeries
Co-Programmation & Développement : Marc-Olivier Méhu
Soutien technique & logistique : Manuel Goepfert

Contact : metmap@orbifly.com




SOURCES & CREDITS :

   NOAA